Time;durP1;ratioP1;P1;durP2;ratioP2;P2;SDS_P1;SDS_P2;PMS_P1;PMS_P2;Temp;Humidity;BMP_temperature;BMP_pressure;BME280_temperature;BME280_humidity;BME280_pressure;Samples;Min_cycle;Max_cycle;Signal;HPM_P1;HPM_P2
2023/07/19 00:00:56;;;;;;;2.75;1.80;;;;;;;-146.25;98.77;52128.94;2088738;28;34706;-71
2023/07/19 00:01:58;;;;;;;3.35;2.25;;;;;;;-146.25;98.98;52141.13;2088437;28;20111;-71
2023/07/19 00:03:00;;;;;;;4.22;2.42;;;;;;;-146.25;98.86;52137.06;2089052;28;35346;-71
2023/07/19 00:04:02;;;;;;;3.50;2.60;;;;;;;-146.25;99.13;52124.91;2088263;28;32328;-71
2023/07/19 00:05:04;;;;;;;4.63;2.10;;;;;;;-146.25;99.11;52149.22;2088444;28;35621;-71
2023/07/19 00:06:06;;;;;;;3.78;2.17;;;;;;;-146.25;99.04;52149.22;2087904;28;36115;-71
2023/07/19 00:07:07;;;;;;;5.40;2.47;;;;;;;-146.25;99.05;52128.94;2080374;28;24810;-72
2023/07/19 00:08:09;;;;;;;5.10;2.17;;;;;;;-146.25;99.34;52161.38;2079284;28;37355;-71
2023/07/19 00:09:11;;;;;;;4.47;2.55;;;;;;;-146.25;99.35;52163.41;2088806;28;30934;-71
2023/07/19 00:10:13;;;;;;;3.92;1.95;;;;;;;-146.25;99.49;52153.28;2088280;28;36307;-71
2023/07/19 00:11:15;;;;;;;4.03;1.92;;;;;;;-146.25;99.58;52147.19;2088273;28;35560;-72
2023/07/19 00:12:16;;;;;;;2.50;1.65;;;;;;;-146.25;99.61;52139.09;2087985;28;37804;-71
2023/07/19 00:13:18;;;;;;;3.92;2.20;;;;;;;-146.25;99.34;52151.25;2087469;28;31366;-70
2023/07/19 00:14:20;;;;;;;3.90;1.90;;;;;;;-146.25;100.00;52159.34;2087729;28;34668;-71
2023/07/19 00:15:22;;;;;;;3.78;2.13;;;;;;;-146.25;100.00;52124.91;2087933;28;36750;-71
2023/07/19 00:16:24;;;;;;;3.55;1.90;;;;;;;-146.25;100.00;52135.03;2087437;28;33933;-71
2023/07/19 00:17:25;;;;;;;5.60;2.33;;;;;;;-146.25;100.00;52135.03;2087798;28;37096;-71
2023/07/19 00:18:30;;;;;;;4.85;2.60;;;;;;;-146.25;100.00;52139.09;2087610;28;35827;-71
2023/07/19 00:19:31;;;;;;;4.28;1.90;;;;;;;-146.25;100.00;52133.00;2088277;28;20072;-71
2023/07/19 00:20:33;;;;;;;4.00;2.50;;;;;;;-146.25;100.00;52130.97;2087597;28;36411;-72
2023/07/19 00:21:35;;;;;;;5.40;2.28;;;;;;;-146.25;100.00;52149.22;2087207;28;36323;-71
2023/07/19 00:22:40;;;;;;;6.22;2.78;;;;;;;-146.25;100.00;52157.34;2087368;28;39469;-71
2023/07/19 00:23:42;;;;;;;5.50;2.80;;;;;;;-146.25;100.00;52133.00;2087959;28;35261;-71
2023/07/19 00:24:44;;;;;;;3.38;2.60;;;;;;;-146.25;100.00;52133.00;2087838;28;34873;-72
2023/07/19 00:25:48;;;;;;;4.38;2.03;;;;;;;-146.25;100.00;52149.22;2088662;28;20111;-72
2023/07/19 00:26:50;;;;;;;4.30;1.70;;;;;;;-146.25;100.00;52143.13;2087909;28;34707;-71
2023/07/19 00:27:51;;;;;;;4.47;2.47;;;;;;;-146.25;100.00;52155.31;2087698;28;32777;-71
2023/07/19 00:28:54;;;;;;;3.97;2.40;;;;;;;-146.25;100.00;52122.88;2087713;28;20263;-71
2023/07/19 00:29:58;;;;;;;2.85;2.40;;;;;;;-146.25;100.00;52147.19;2088430;28;20802;-72
2023/07/19 00:31:02;;;;;;;5.07;2.95;;;;;;;-146.25;100.00;52161.38;2089493;28;20930;-71
2023/07/19 00:32:04;;;;;;;2.92;2.10;;;;;;;-146.25;100.00;52133.00;2087761;28;22109;-71
2023/07/19 00:33:06;;;;;;;3.95;2.03;;;;;;;-146.25;100.00;52163.41;2087939;28;20053;-71
2023/07/19 00:34:10;;;;;;;4.47;2.88;;;;;;;-146.25;100.00;52157.34;2080226;28;20046;-71
2023/07/19 00:35:12;;;;;;;3.00;2.60;;;;;;;-146.25;100.00;52133.00;2087678;28;28446;-71
2023/07/19 00:36:14;;;;;;;5.35;2.55;;;;;;;-146.25;100.00;52157.34;2088842;28;20061;-71
2023/07/19 00:37:16;;;;;;;3.40;2.53;;;;;;;-146.25;100.00;52208.03;2087711;28;24983;-71
2023/07/19 00:38:21;;;;;;;3.22;2.03;;;;;;;-146.25;100.00;52157.34;2079876;28;30105;-71
2023/07/19 00:39:23;;;;;;;4.85;2.22;;;;;;;-146.25;100.00;52124.91;2087939;28;32313;-71
2023/07/19 00:40:25;;;;;;;3.17;2.13;;;;;;;-146.25;100.00;52128.94;2096452;28;25705;-71
2023/07/19 00:41:26;;;;;;;4.10;2.25;;;;;;;-146.25;100.00;52179.63;2096405;28;20072;-71
2023/07/19 00:42:28;;;;;;;4.63;2.45;;;;;;;-146.25;100.00;52133.00;2087857;28;30698;-71
2023/07/19 00:43:31;;;;;;;4.10;2.40;;;;;;;-146.25;100.00;52177.59;2088022;28;20083;-71
2023/07/19 00:44:33;;;;;;;5.70;2.83;;;;;;;-146.25;100.00;52118.81;2088991;28;20084;-71
2023/07/19 00:45:35;;;;;;;2.97;2.20;;;;;;;-146.25;100.00;52114.75;2087469;28;32976;-71
2023/07/19 00:46:40;;;;;;;3.05;2.22;;;;;;;-146.25;100.00;52155.31;2080094;28;20089;-72
2023/07/19 00:47:42;;;;;;;4.32;2.00;;;;;;;-146.25;100.00;52165.44;2088467;28;25184;-71
2023/07/19 00:48:44;;;;;;;3.97;2.35;;;;;;;-146.25;100.00;52157.34;2088590;28;20049;-71
2023/07/19 00:49:47;;;;;;;4.78;2.22;;;;;;;-146.25;100.00;52147.19;2088599;28;20049;-71
2023/07/19 00:50:51;;;;;;;6.32;2.58;;;;;;;-146.25;100.00;52165.44;2087750;28;31702;-71
2023/07/19 00:51:53;;;;;;;3.75;2.40;;;;;;;-146.25;100.00;52153.28;2078612;28;37961;-71
2023/07/19 00:52:55;;;;;;;4.07;2.38;;;;;;;-146.25;100.00;52169.50;2080131;28;30343;-72
2023/07/19 00:53:58;;;;;;;5.65;2.67;;;;;;;-146.25;100.00;52161.38;2087935;28;20245;-71
2023/07/19 00:55:00;;;;;;;4.00;2.60;;;;;;;-146.25;100.00;52185.72;2087886;28;25442;-71
2023/07/19 00:56:05;;;;;;;5.45;3.05;;;;;;;-146.25;100.00;52165.44;2079623;28;29558;-71
2023/07/19 00:57:09;;;;;;;3.58;2.53;;;;;;;-146.25;100.00;52122.88;2089275;28;20069;-71
2023/07/19 00:58:12;;;;;;;5.82;3.40;;;;;;;-146.25;100.00;52135.03;2095372;28;20041;-71
2023/07/19 00:59:15;;;;;;;3.75;2.97;;;;;;;-146.25;100.00;52124.91;2087868;28;20838;-71
2023/07/19 01:00:18;;;;;;;8.65;3.80;;;;;;;-146.25;100.00;52169.50;2087747;28;26726;-71
2023/07/19 01:01:22;;;;;;;4.35;3.38;;;;;;;-146.25;100.00;52169.50;2079690;28;20231;-72
2023/07/19 01:02:25;;;;;;;4.20;3.20;;;;;;;-146.25;100.00;52161.38;2079914;28;25933;-71
2023/07/19 01:03:27;;;;;;;6.45;3.53;;;;;;;-146.25;100.00;52165.44;2088703;28;29649;-71
2023/07/19 01:04:29;;;;;;;4.47;3.13;;;;;;;-146.25;100.00;52157.34;2088804;28;20512;-71
2023/07/19 01:05:34;;;;;;;4.97;3.38;;;;;;;-146.25;100.00;52181.66;2088949;28;20041;-71
2023/07/19 01:06:35;;;;;;;5.30;3.08;;;;;;;-146.25;100.00;52130.97;2088343;28;25325;-71
2023/07/19 01:07:38;;;;;;;5.65;2.85;;;;;;;-146.25;100.00;52177.59;2088053;28;20053;-71
2023/07/19 01:08:40;;;;;;;3.63;2.97;;;;;;;-146.25;100.00;52191.81;2087960;28;20041;-71
2023/07/19 01:09:42;;;;;;;3.05;2.20;;;;;;;-146.25;100.00;52141.13;2088875;28;21003;-71
2023/07/19 01:10:45;;;;;;;4.25;2.95;;;;;;;-146.25;100.00;52137.06;2088340;28;23909;-71
2023/07/19 01:11:47;;;;;;;4.55;3.25;;;;;;;-146.25;100.00;52173.56;2088444;28;29861;-71
2023/07/19 01:13:10;;;;;;;6.72;3.33;;;;;;;-146.25;100.00;52135.03;2087042;28;31182;-71
2023/07/19 01:14:12;;;;;;;5.43;3.58;;;;;;;-146.25;100.00;52179.63;2088070;28;29840;-71
2023/07/19 01:15:14;;;;;;;5.50;3.72;;;;;;;-146.25;100.00;52137.06;2088531;28;23174;-71
2023/07/19 01:16:16;;;;;;;5.57;3.63;;;;;;;-146.25;100.00;52153.28;2088220;28;24051;-71
2023/07/19 01:17:17;;;;;;;4.05;3.17;;;;;;;-146.25;100.00;52145.16;2087283;28;28312;-71
2023/07/19 01:18:21;;;;;;;5.60;3.40;;;;;;;-146.25;100.00;52171.53;2071985;28;20946;-71
2023/07/19 01:19:23;;;;;;;6.72;4.05;;;;;;;-146.25;100.00;52157.34;2071442;28;32154;-71
2023/07/19 01:20:28;;;;;;;5.63;3.92;;;;;;;-146.25;100.00;52139.09;2088441;28;20045;-71
2023/07/19 01:21:29;;;;;;;4.63;3.60;;;;;;;-146.25;100.00;52165.44;2095655;28;29304;-71
2023/07/19 01:22:32;;;;;;;6.43;3.00;;;;;;;-146.25;100.00;52141.13;2088228;28;35723;-71
2023/07/19 01:23:37;;;;;;;5.10;3.10;;;;;;;-146.25;100.00;52143.13;2088042;28;20036;-71
2023/07/19 01:24:41;;;;;;;7.90;3.80;;;;;;;-146.25;100.00;52145.16;2088226;28;31639;-71
2023/07/19 01:25:43;;;;;;;3.20;2.90;;;;;;;-146.25;100.00;52177.59;2095105;28;24995;-71
2023/07/19 01:26:45;;;;;;;4.28;3.08;;;;;;;-146.25;100.00;52108.66;2088158;28;30032;-71
2023/07/19 01:27:49;;;;;;;4.07;3.33;;;;;;;-146.25;100.00;52139.09;2087611;28;25403;-72
2023/07/19 01:28:55;;;;;;;5.47;3.63;;;;;;;-146.25;100.00;52145.16;2080300;28;20760;-71
2023/07/19 01:29:56;;;;;;;3.67;3.35;;;;;;;-146.25;100.00;52165.44;2087970;28;26163;-71
2023/07/19 01:31:05;;;;;;;4.18;3.28;;;;;;;-146.25;100.00;52151.25;2088384;28;28432;-71
2023/07/19 01:32:07;;;;;;;3.50;3.20;;;;;;;-146.25;100.00;52137.06;2088520;28;31022;-71
2023/07/19 01:33:09;;;;;;;5.68;3.20;;;;;;;-146.25;100.00;52141.13;2087246;28;24777;-71
2023/07/19 01:34:27;;;;;;;6.38;3.28;;;;;;;-146.25;100.00;52143.13;2087588;28;25942;-71
2023/07/19 01:35:29;;;;;;;3.92;2.80;;;;;;;-146.25;100.00;52157.34;2079917;28;20128;-71
2023/07/19 01:36:31;;;;;;;4.35;2.80;;;;;;;-146.25;100.00;52151.25;2087696;28;29559;-72
2023/07/19 01:37:33;;;;;;;9.13;3.17;;;;;;;-146.25;100.00;52169.50;2087492;28;20040;-70
2023/07/19 01:38:41;;;;;;;3.92;2.90;;;;;;;-146.25;100.00;52173.56;2080178;28;20034;-71
2023/07/19 01:39:45;;;;;;;4.13;2.72;;;;;;;-146.25;100.00;52169.50;2088276;28;20167;-71
2023/07/19 01:40:47;;;;;;;4.50;2.83;;;;;;;-146.25;100.00;52110.69;2086616;28;30593;-72
2023/07/19 01:41:48;;;;;;;6.47;3.25;;;;;;;-146.25;100.00;52177.59;2078905;28;28960;-71
2023/07/19 01:42:51;;;;;;;6.95;3.25;;;;;;;-146.25;100.00;52120.84;2087943;28;22337;-71
2023/07/19 01:43:55;;;;;;;9.77;3.40;;;;;;;-146.25;100.00;52167.47;2087901;28;34070;-71
2023/07/19 01:44:57;;;;;;;4.00;2.92;;;;;;;-146.25;99.79;52153.28;2079204;28;25793;-72
2023/07/19 01:45:59;;;;;;;6.50;3.33;;;;;;;-146.25;100.00;52133.00;2079707;28;21038;-71
2023/07/19 01:47:01;;;;;;;4.95;2.80;;;;;;;-146.25;99.56;52141.13;2086532;28;22003;-71
2023/07/19 01:48:03;;;;;;;2.97;2.42;;;;;;;-146.25;99.38;52130.97;2087424;28;27985;-71
2023/07/19 01:49:05;;;;;;;5.47;2.35;;;;;;;-146.25;99.60;52157.34;2086866;28;37820;-71
2023/07/19 01:50:07;;;;;;;6.43;2.38;;;;;;;-146.25;99.31;52135.03;2087799;28;20362;-71
2023/07/19 01:51:11;;;;;;;4.68;2.20;;;;;;;-146.25;99.50;52163.41;2087981;28;20115;-70
2023/07/19 01:52:15;;;;;;;6.65;2.70;;;;;;;-146.25;99.52;52169.50;2087188;28;30062;-71
2023/07/19 01:53:17;;;;;;;5.03;2.67;;;;;;;-146.25;100.00;52163.41;2087821;28;22075;-71
2023/07/19 01:54:22;;;;;;;4.85;2.72;;;;;;;-146.25;100.00;52157.34;2087615;28;22810;-70
2023/07/19 01:55:23;;;;;;;3.10;2.63;;;;;;;-146.25;100.00;52167.47;2088547;28;29479;-71
2023/07/19 01:56:27;;;;;;;4.25;2.40;;;;;;;-146.25;100.00;52147.19;2088176;28;20034;-71
2023/07/19 01:57:29;;;;;;;5.28;2.63;;;;;;;-146.25;100.00;52135.03;2088787;28;20160;-71
2023/07/19 01:58:31;;;;;;;6.03;2.88;;;;;;;-146.25;100.00;52163.41;2087669;28;20050;-71
2023/07/19 01:59:33;;;;;;;3.58;2.40;;;;;;;-146.25;100.00;52137.06;2088013;28;20163;-71
2023/07/19 02:00:39;;;;;;;2.95;2.30;;;;;;;-146.25;100.00;52130.97;2081924;28;20132;-71
2023/07/19 02:01:42;;;;;;;5.55;2.08;;;;;;;-146.25;100.00;52171.53;2070539;28;27086;-71
2023/07/19 02:02:44;;;;;;;3.42;2.00;;;;;;;-146.25;100.00;52171.53;2078499;28;28545;-71
2023/07/19 02:03:46;;;;;;;3.47;1.95;;;;;;;-146.25;100.00;52185.72;2070727;28;28376;-72
2023/07/19 02:04:48;;;;;;;3.22;2.40;;;;;;;-146.25;100.00;52183.69;2071059;28;22433;-72
2023/07/19 02:06:00;;;;;;;4.95;2.42;;;;;;;-146.25;100.00;52181.66;2071454;28;21026;-71
2023/07/19 02:07:02;;;;;;;5.47;2.10;;;;;;;-146.25;100.00;52141.13;2071242;28;22547;-72
2023/07/19 02:08:06;;;;;;;3.25;2.00;;;;;;;-146.25;100.00;52143.13;2074845;28;24939;-72
2023/07/19 02:09:08;;;;;;;5.10;2.60;;;;;;;-146.25;100.00;52181.66;2087853;28;32750;-72
2023/07/19 02:10:11;;;;;;;4.25;2.25;;;;;;;-146.25;100.00;52157.34;2087810;28;20079;-72
2023/07/19 02:11:13;;;;;;;2.90;2.00;;;;;;;-146.25;100.00;52126.91;2079222;28;30069;-71
2023/07/19 02:12:17;;;;;;;4.60;2.30;;;;;;;-146.25;100.00;52137.06;2079279;28;22839;-72
2023/07/19 02:13:19;;;;;;;4.40;2.67;;;;;;;-146.25;100.00;52163.41;2079577;28;20085;-72
2023/07/19 02:14:21;;;;;;;3.15;2.15;;;;;;;-146.25;100.00;52135.03;2087797;28;20037;-72
2023/07/19 02:15:23;;;;;;;3.80;2.25;;;;;;;-146.25;100.00;52177.59;2086969;28;35200;-72
2023/07/19 02:16:25;;;;;;;4.28;3.00;;;;;;;-146.25;100.00;52169.50;2079379;28;22018;-71
2023/07/19 02:17:27;;;;;;;3.88;2.67;;;;;;;-146.25;100.00;52199.91;2088054;28;25807;-72
2023/07/19 02:18:31;;;;;;;5.80;3.35;;;;;;;-146.25;100.00;52163.41;2096199;28;20033;-72
2023/07/19 02:19:32;;;;;;;4.05;2.53;;;;;;;-146.25;100.00;52177.59;2087787;28;34718;-71
2023/07/19 02:20:34;;;;;;;4.22;2.45;;;;;;;-146.25;100.00;52149.22;2087905;28;22783;-72
2023/07/19 02:21:36;;;;;;;5.85;3.20;;;;;;;-146.25;100.00;52185.72;2079590;28;20222;-72
2023/07/19 02:22:39;;;;;;;4.70;2.63;;;;;;;-146.25;100.00;52151.25;2087513;28;29107;-71
2023/07/19 02:23:43;;;;;;;3.63;2.60;;;;;;;-146.25;100.00;52175.56;2078312;28;34630;-72
2023/07/19 02:24:45;;;;;;;4.88;2.88;;;;;;;-146.25;100.00;52171.53;2079819;28;25794;-71
2023/07/19 02:25:50;;;;;;;5.80;3.10;;;;;;;-146.25;100.00;52163.41;2088098;28;26846;-71
2023/07/19 02:26:54;;;;;;;6.53;3.05;;;;;;;-146.25;100.00;52197.88;2087535;28;33980;-72
2023/07/19 02:27:56;;;;;;;3.20;2.50;;;;;;;-146.25;100.00;52143.13;2086978;28;26800;-71
2023/07/19 02:29:00;;;;;;;3.85;2.97;;;;;;;-146.25;100.00;52185.72;2087575;28;21655;-71
2023/07/19 02:30:03;;;;;;;5.00;3.28;;;;;;;-146.25;100.00;52161.38;2087713;28;20115;-71
2023/07/19 02:31:05;;;;;;;4.82;2.97;;;;;;;-146.25;100.00;52137.06;2087433;28;31243;-71
2023/07/19 02:32:10;;;;;;;4.88;2.97;;;;;;;-146.25;100.00;52181.66;2079326;28;20937;-72
2023/07/19 02:33:13;;;;;;;5.70;3.10;;;;;;;-146.25;100.00;52163.41;2088149;28;20041;-71
2023/07/19 02:34:20;;;;;;;6.47;3.10;;;;;;;-146.25;100.00;52153.28;2086861;28;29761;-72
2023/07/19 02:35:22;;;;;;;7.30;3.25;;;;;;;-146.25;100.00;52141.13;2088109;28;27903;-70
2023/07/19 02:36:24;;;;;;;7.80;3.78;;;;;;;-146.25;100.00;52163.41;2095509;28;32038;-72
2023/07/19 02:37:26;;;;;;;4.85;2.97;;;;;;;-146.25;100.00;52175.56;2088383;28;20049;-72
2023/07/19 02:38:28;;;;;;;5.45;3.00;;;;;;;-146.25;100.00;52165.44;2086990;28;29304;-71
2023/07/19 02:39:30;;;;;;;7.80;3.65;;;;;;;-146.25;100.00;52193.81;2087691;28;27116;-72
2023/07/19 02:40:32;;;;;;;4.05;3.20;;;;;;;-146.25;100.00;52159.34;2087177;28;20822;-71
2023/07/19 02:41:34;;;;;;;5.00;3.15;;;;;;;-146.25;100.00;52175.56;2087172;28;28243;-71
2023/07/19 02:42:36;;;;;;;6.10;3.13;;;;;;;-146.25;100.00;52153.28;2086996;28;20135;-71
2023/07/19 02:43:38;;;;;;;4.57;2.95;;;;;;;-146.25;100.00;52153.28;2087672;28;20041;-70
2023/07/19 02:44:42;;;;;;;4.22;2.97;;;;;;;-146.25;100.00;52177.59;2086893;28;36583;-71
2023/07/19 02:45:44;;;;;;;4.88;3.42;;;;;;;-146.25;100.00;52175.56;2079521;28;29430;-71
2023/07/19 02:46:46;;;;;;;5.65;3.47;;;;;;;-146.25;100.00;52149.22;2088088;28;25261;-72
2023/07/19 02:47:47;;;;;;;4.20;3.20;;;;;;;-146.25;100.00;52203.97;2089180;28;20981;-71
2023/07/19 02:48:49;;;;;;;5.78;3.17;;;;;;;-146.25;100.00;52181.66;2088484;28;30470;-71
2023/07/19 02:49:52;;;;;;;5.15;3.30;;;;;;;-146.25;100.00;52175.56;2089216;28;27376;-72
2023/07/19 02:50:53;;;;;;;6.28;3.60;;;;;;;-146.25;100.00;52173.56;2088975;28;34343;-71
2023/07/19 02:51:55;;;;;;;4.68;3.38;;;;;;;-146.25;100.00;52169.50;2089049;28;23941;-71
2023/07/19 02:52:57;;;;;;;4.68;3.28;;;;;;;-146.25;100.00;52171.53;2089216;28;34356;-72
2023/07/19 02:54:02;;;;;;;5.80;4.40;;;;;;;-146.25;100.00;52189.78;2088171;28;20902;-72
2023/07/19 02:55:04;;;;;;;7.72;4.90;;;;;;;-146.25;100.00;52173.56;2088975;28;23895;-71
2023/07/19 02:56:06;;;;;;;6.95;4.47;;;;;;;-146.25;100.00;52167.47;2080424;28;20900;-71
2023/07/19 02:57:08;;;;;;;5.45;4.72;;;;;;;-146.25;100.00;52173.56;2072691;28;27663;-71
2023/07/19 02:58:10;;;;;;;8.13;4.93;;;;;;;-146.25;100.00;52130.97;2088960;28;30905;-71
2023/07/19 02:59:12;;;;;;;6.32;4.63;;;;;;;-146.25;100.00;52177.59;2096789;28;28791;-71
2023/07/19 03:00:16;;;;;;;6.28;4.47;;;;;;;-146.25;100.00;52163.41;2088724;28;20103;-71
2023/07/19 03:01:18;;;;;;;7.15;4.90;;;;;;;-146.25;100.00;52175.56;2080459;28;20050;-71
2023/07/19 03:02:20;;;;;;;8.93;4.88;;;;;;;-146.25;100.00;52181.66;2080917;28;20054;-71
2023/07/19 03:03:23;;;;;;;6.35;5.07;;;;;;;-146.25;100.00;52130.97;2088382;28;29609;-71
2023/07/19 03:04:25;;;;;;;7.57;4.35;;;;;;;-146.25;100.00;52177.59;2090020;28;21116;-72
2023/07/19 03:05:27;;;;;;;7.55;5.03;;;;;;;-146.25;100.00;52212.06;2088791;28;20050;-72
2023/07/19 03:06:28;;;;;;;7.00;5.50;;;;;;;-146.25;100.00;52173.56;2088617;28;29215;-70
2023/07/19 03:07:32;;;;;;;10.38;5.28;;;;;;;-146.25;100.00;52155.31;2089248;28;22961;-72
2023/07/19 03:08:36;;;;;;;8.57;5.43;;;;;;;-146.25;100.00;52173.56;2089107;28;20136;-72
2023/07/19 03:09:37;;;;;;;7.95;4.75;;;;;;;-146.25;100.00;52165.44;2088427;28;25920;-72
2023/07/19 03:10:41;;;;;;;8.20;4.75;;;;;;;-146.25;100.00;52161.38;2088458;28;20078;-70
2023/07/19 03:11:43;;;;;;;7.47;4.55;;;;;;;-146.25;100.00;52197.88;2089187;28;22626;-72
2023/07/19 03:12:45;;;;;;;8.48;5.18;;;;;;;-146.25;100.00;52165.44;2088498;28;24436;-71
2023/07/19 03:13:48;;;;;;;7.43;4.28;;;;;;;-146.25;100.00;52163.41;2088331;28;20036;-71
2023/07/19 03:14:50;;;;;;;8.40;5.47;;;;;;;-146.25;100.00;52163.41;2088936;28;21602;-72
2023/07/19 03:15:52;;;;;;;7.13;4.20;;;;;;;-146.25;100.00;52187.75;2088735;28;20184;-72
2023/07/19 03:16:53;;;;;;;6.65;4.82;;;;;;;-146.25;100.00;52157.34;2088464;28;31408;-71
2023/07/19 03:17:55;;;;;;;7.88;5.30;;;;;;;-146.25;100.00;52169.50;2088559;28;20883;-71
2023/07/19 03:18:57;;;;;;;5.25;4.72;;;;;;;-146.25;100.00;52206.00;2087694;28;30614;-70
2023/07/19 03:19:59;;;;;;;8.65;5.50;;;;;;;-146.25;100.00;52163.41;2071440;28;28033;-72
2023/07/19 03:21:04;;;;;;;6.40;5.03;;;;;;;-146.25;100.00;52179.63;2064009;28;28776;-71
2023/07/19 03:22:06;;;;;;;6.40;4.45;;;;;;;-146.25;100.00;52181.66;2063582;28;28055;-71
2023/07/19 03:23:08;;;;;;;8.48;5.00;;;;;;;-146.25;100.00;52173.56;2072662;28;20915;-71
2023/07/19 03:24:12;;;;;;;9.77;5.30;;;;;;;-146.25;100.00;52161.38;2073026;28;28565;-71
2023/07/19 03:25:13;;;;;;;6.10;5.07;;;;;;;-146.25;100.00;52130.97;2072709;28;27827;-71
2023/07/19 03:26:15;;;;;;;5.55;4.70;;;;;;;-146.25;100.00;52147.19;2072389;28;26543;-71
2023/07/19 03:27:17;;;;;;;5.50;4.80;;;;;;;-146.25;100.00;52171.53;2072442;28;20039;-71
2023/07/19 03:28:20;;;;;;;4.40;4.00;;;;;;;-146.25;100.00;52151.25;2071907;28;20169;-71
2023/07/19 03:29:24;;;;;;;7.50;4.90;;;;;;;-146.25;100.00;52149.22;2072057;28;22956;-71
2023/07/19 03:30:26;;;;;;;8.55;4.93;;;;;;;-146.25;100.00;52145.16;2071798;28;20047;-71
2023/07/19 03:31:31;;;;;;;7.72;4.93;;;;;;;-146.25;100.00;52130.97;2064318;28;20047;-71
2023/07/19 03:32:32;;;;;;;5.82;4.88;;;;;;;-146.25;100.00;52169.50;2071900;28;27178;-70
2023/07/19 03:33:35;;;;;;;5.82;4.72;;;;;;;-146.25;100.00;52181.66;2080059;28;20101;-70
2023/07/19 03:34:37;;;;;;;7.65;4.88;;;;;;;-146.25;100.00;52153.28;2079930;28;29799;-71
2023/07/19 03:35:41;;;;;;;6.68;5.00;;;;;;;-146.25;100.00;52177.59;2072596;28;31841;-71
2023/07/19 03:36:43;;;;;;;8.05;4.65;;;;;;;-146.25;100.00;52185.72;2087476;28;20974;-71
2023/07/19 03:37:45;;;;;;;6.38;4.55;;;;;;;-146.25;100.00;52171.53;2079828;28;35635;-71
2023/07/19 03:38:47;;;;;;;6.85;4.70;;;;;;;-146.25;100.00;52153.28;2080558;28;20135;-70
2023/07/19 03:39:51;;;;;;;6.05;4.45;;;;;;;-146.25;100.00;52153.28;2080569;28;20034;-71
2023/07/19 03:40:53;;;;;;;5.47;4.68;;;;;;;-146.25;100.00;52157.34;2080618;28;20251;-70
2023/07/19 03:41:57;;;;;;;7.35;4.90;;;;;;;-146.25;100.00;52185.72;2086340;28;20057;-71
2023/07/19 03:42:59;;;;;;;6.13;4.95;;;;;;;-146.25;100.00;52153.28;2088547;28;20069;-71
2023/07/19 03:44:02;;;;;;;5.15;4.18;;;;;;;-146.25;100.00;52151.25;2088276;28;20368;-70
2023/07/19 03:45:06;;;;;;;5.97;4.43;;;;;;;-146.25;100.00;52137.06;2088479;28;20152;-71
2023/07/19 03:46:08;;;;;;;6.05;4.55;;;;;;;-146.25;100.00;52206.00;2096489;28;30029;-70
2023/07/19 03:47:12;;;;;;;5.45;4.93;;;;;;;-146.25;100.00;52161.38;2087805;28;20107;-71
2023/07/19 03:48:14;;;;;;;6.75;4.57;;;;;;;-146.25;100.00;52141.13;2088091;28;20117;-70
2023/07/19 03:49:16;;;;;;;7.68;4.50;;;;;;;-146.25;100.00;52175.56;2088820;28;20933;-71
2023/07/19 03:50:19;;;;;;;7.47;4.35;;;;;;;-146.25;100.00;52155.31;2088481;28;20925;-70
2023/07/19 03:51:21;;;;;;;6.55;4.32;;;;;;;-146.25;100.00;52161.38;2088471;28;20056;-70
2023/07/19 03:52:23;;;;;;;5.50;4.10;;;;;;;-146.25;100.00;52165.44;2088387;28;20042;-70
2023/07/19 03:53:25;;;;;;;6.20;4.25;;;;;;;-146.25;100.00;52195.84;2088659;28;20041;-71
2023/07/19 03:54:27;;;;;;;6.40;4.30;;;;;;;-146.25;100.00;52163.41;2087252;28;20053;-71
2023/07/19 03:55:32;;;;;;;9.73;4.90;;;;;;;-146.25;100.00;52165.44;2088244;28;24426;-71
2023/07/19 03:56:34;;;;;;;6.40;4.80;;;;;;;-146.25;100.00;52206.00;2087999;28;21260;-71
2023/07/19 03:57:38;;;;;;;7.32;5.10;;;;;;;-146.25;100.00;52149.22;2088243;28;20895;-71
2023/07/19 03:58:45;;;;;;;5.68;4.53;;;;;;;-146.25;100.00;52191.81;2080418;28;20183;-70
2023/07/19 03:59:49;;;;;;;5.50;5.00;;;;;;;-146.25;100.00;52179.63;2080381;28;20081;-71
2023/07/19 04:00:57;;;;;;;7.28;5.30;;;;;;;-146.25;100.00;52173.56;2088733;28;20060;-70
2023/07/19 04:01:59;;;;;;;8.55;5.50;;;;;;;-146.25;100.00;52161.38;2088183;28;20095;-71
2023/07/19 04:03:01;;;;;;;6.00;5.38;;;;;;;-146.25;100.00;52187.75;2088114;28;27394;-70
2023/07/19 04:04:03;;;;;;;9.18;6.13;;;;;;;-146.25;100.00;52155.31;2088214;28;20038;-71
2023/07/19 04:05:06;;;;;;;5.53;4.97;;;;;;;-146.25;100.00;52161.38;2088831;28;25697;-71
2023/07/19 04:06:07;;;;;;;11.30;5.60;;;;;;;-146.25;100.00;52157.34;2088360;28;20833;-70
2023/07/19 04:07:09;;;;;;;7.90;5.40;;;;;;;-146.25;100.00;52224.25;2087734;28;38613;-70
2023/07/19 04:08:16;;;;;;;9.88;6.18;;;;;;;-146.25;100.00;52177.59;2079667;28;23439;-70
2023/07/19 04:09:20;;;;;;;10.23;6.30;;;;;;;-146.25;100.00;52185.72;2088501;28;32975;-69
2023/07/19 04:10:24;;;;;;;7.75;5.72;;;;;;;-146.25;100.00;52114.75;2087575;28;20971;-70
2023/07/19 04:11:28;;;;;;;6.35;5.50;;;;;;;-146.25;100.00;52177.59;2087653;28;28228;-70
2023/07/19 04:12:30;;;;;;;9.60;6.43;;;;;;;-146.25;100.00;52201.94;2087695;28;32256;-70
2023/07/19 04:13:32;;;;;;;7.45;5.50;;;;;;;-146.25;100.00;52139.09;2087837;28;20038;-70
2023/07/19 04:14:33;;;;;;;9.30;5.97;;;;;;;-146.25;100.00;52153.28;2080653;28;23382;-69
2023/07/19 04:15:35;;;;;;;7.72;6.65;;;;;;;-146.25;100.00;52149.22;2078486;28;25083;-70
2023/07/19 04:16:41;;;;;;;8.57;6.60;;;;;;;-146.25;100.00;52165.44;2080386;28;20069;-70
2023/07/19 04:17:45;;;;;;;8.80;6.10;;;;;;;-146.25;100.00;52169.50;2088584;28;20171;-70
2023/07/19 04:18:47;;;;;;;9.80;6.15;;;;;;;-146.25;100.00;52169.50;2087620;28;34373;-70
2023/07/19 04:19:49;;;;;;;9.38;5.80;;;;;;;-146.25;100.00;52159.34;2088421;28;20033;-69
2023/07/19 04:20:57;;;;;;;8.73;6.03;;;;;;;-146.25;100.00;52171.53;2088356;28;20049;-69
2023/07/19 04:21:59;;;;;;;8.80;6.10;;;;;;;-146.25;100.00;52183.69;2080005;28;20886;-69
2023/07/19 04:23:01;;;;;;;8.02;5.70;;;;;;;-146.25;100.00;52167.47;2080031;28;20085;-70
2023/07/19 04:24:03;;;;;;;8.00;5.57;;;;;;;-146.25;100.00;52163.41;2080076;28;20097;-70
2023/07/19 04:25:06;;;;;;;8.80;5.93;;;;;;;-146.25;100.00;52173.56;2080230;28;20042;-70
2023/07/19 04:26:09;;;;;;;6.88;5.50;;;;;;;-146.25;100.00;52145.16;2080288;28;20200;-70
2023/07/19 04:27:11;;;;;;;7.28;5.90;;;;;;;-146.25;100.00;52137.06;2080082;28;20089;-70
2023/07/19 04:28:13;;;;;;;10.73;6.07;;;;;;;-146.25;100.00;52185.72;2080262;28;21126;-70
2023/07/19 04:29:14;;;;;;;7.22;4.85;;;;;;;-146.25;100.00;52177.59;2088357;28;20173;-70
2023/07/19 04:30:16;;;;;;;8.93;5.57;;;;;;;-146.25;100.00;52165.44;2087881;28;20183;-68
2023/07/19 04:31:18;;;;;;;8.95;6.00;;;;;;;-146.25;100.00;52165.44;2088841;28;20244;-70
2023/07/19 04:32:20;;;;;;;6.88;5.72;;;;;;;-146.25;100.00;52159.34;2087682;28;22198;-70
2023/07/19 04:33:25;;;;;;;8.32;5.65;;;;;;;-146.25;100.00;52151.25;2080619;28;20183;-70
2023/07/19 04:34:26;;;;;;;11.93;5.55;;;;;;;-146.25;100.00;52159.34;2079646;28;20434;-70
2023/07/19 04:35:28;;;;;;;9.25;5.07;;;;;;;-146.25;100.00;52169.50;2087622;28;20144;-69
2023/07/19 04:36:30;;;;;;;9.65;5.53;;;;;;;-146.25;100.00;52173.56;2088265;28;20861;-70
2023/07/19 04:37:32;;;;;;;11.13;5.53;;;;;;;-146.25;100.00;52167.47;2088447;28;20164;-70
2023/07/19 04:38:35;;;;;;;7.47;5.72;;;;;;;-146.25;100.00;52167.47;2089199;28;20049;-69
2023/07/19 04:39:36;;;;;;;6.35;4.90;;;;;;;-146.25;100.00;52163.41;2087844;28;20982;-70
2023/07/19 04:40:38;;;;;;;8.27;5.70;;;;;;;-146.25;100.00;52185.72;2079995;28;20157;-70
2023/07/19 04:41:42;;;;;;;6.70;5.22;;;;;;;-146.25;100.00;52179.63;2087038;28;20918;-70
2023/07/19 04:42:49;;;;;;;7.93;4.82;;;;;;;-146.25;100.00;52153.28;2087978;28;20046;-70
2023/07/19 04:43:51;;;;;;;6.75;5.32;;;;;;;-146.25;100.00;52183.69;2080230;28;20073;-70
2023/07/19 04:44:54;;;;;;;7.50;5.50;;;;;;;-146.25;100.00;52191.81;2087855;28;20029;-70
2023/07/19 04:45:59;;;;;;;5.53;4.82;;;;;;;-146.25;100.00;52124.91;2079957;28;20046;-70